Time;durP1;ratioP1;P1;durP2;ratioP2;P2;SDS_P1;SDS_P2;PMS_P1;PMS_P2;Temp;Humidity;BMP_temperature;BMP_pressure;BME280_temperature;BME280_humidity;BME280_pressure;Samples;Min_cycle;Max_cycle;Signal;HPM_P1;HPM_P2
2021/03/16 05:10:18;;;;;;;1.50;0.90;;;;;;;1.55;92.20;93071.28;6178568;23;20082;-80
2021/03/16 05:12:44;;;;;;;1.10;1.00;;;;;;;1.57;91.51;93076.22;6105710;23;20005;-79
2021/03/16 05:20:41;;;;;;;1.42;1.02;;;;;;;1.79;91.64;93106.13;6166249;23;20025;-81
2021/03/16 05:25:50;;;;;;;0.90;0.90;;;;;;;1.59;92.29;93080.19;6170369;23;20025;-79
2021/03/16 05:28:16;;;;;;;1.08;0.90;;;;;;;1.67;92.13;93088.78;6207511;23;20021;-80
2021/03/16 05:30:42;;;;;;;1.20;1.10;;;;;;;1.73;92.29;93083.84;6156675;23;20008;-82
2021/03/16 05:33:08;;;;;;;1.38;1.27;;;;;;;1.66;92.06;93088.00;6137792;23;20001;-78
2021/03/16 05:35:33;;;;;;;1.30;1.20;;;;;;;1.79;92.46;93105.34;6157689;23;19997;-80
2021/03/16 05:37:59;;;;;;;1.50;1.40;;;;;;;1.66;92.44;93080.34;6182179;23;20470;-79
2021/03/16 05:40:28;;;;;;;1.88;1.48;;;;;;;1.75;92.72;93114.25;6154640;23;20020;-78
2021/03/16 05:42:57;;;;;;;1.80;1.50;;;;;;;1.87;92.35;93112.94;6144414;23;20450;-79
2021/03/16 05:45:22;;;;;;;1.73;1.60;;;;;;;1.75;92.46;93114.25;6176141;23;20008;-79
2021/03/16 05:47:48;;;;;;;1.60;1.50;;;;;;;1.71;92.52;93105.34;6159055;23;20028;-78
2021/03/16 05:50:17;;;;;;;4.85;1.30;;;;;;;1.67;92.65;93107.41;6177278;23;20015;-77
2021/03/16 05:52:42;;;;;;;2.13;1.15;;;;;;;1.62;92.71;93119.06;6166935;23;20005;-78
2021/03/16 05:55:08;;;;;;;1.67;1.58;;;;;;;1.61;92.89;93123.38;6171874;23;20008;-79
2021/03/16 05:57:34;;;;;;;1.50;1.40;;;;;;;1.63;93.11;93123.22;6118460;23;20092;-79
2021/03/16 06:00:01;;;;;;;1.50;1.40;;;;;;;1.62;92.74;93108.88;6201730;23;20009;-78
2021/03/16 06:02:26;;;;;;;1.63;1.52;;;;;;;1.64;93.05;93115.41;6120083;23;20005;-79
2021/03/16 06:04:52;;;;;;;2.10;1.85;;;;;;;1.68;92.96;93129.44;6142090;23;20065;-78
2021/03/16 06:07:17;;;;;;;3.97;2.17;;;;;;;1.74;92.63;93122.88;6119953;23;20009;-79
2021/03/16 06:09:43;;;;;;;1.50;1.40;;;;;;;1.75;92.56;93127.03;6151923;23;20020;-80
2021/03/16 06:12:09;;;;;;;3.55;1.70;;;;;;;1.68;92.61;93134.53;6123718;23;20005;-80
2021/03/16 06:14:36;;;;;;;3.60;2.53;;;;;;;1.68;92.99;93133.72;6146086;23;20645;-78
2021/03/16 06:17:02;;;;;;;5.00;4.43;;;;;;;1.69;92.55;93125.13;6146736;23;20008;-78
2021/03/16 06:19:28;;;;;;;2.78;2.55;;;;;;;1.72;94.63;93150.31;6124211;23;20008;-77
2021/03/16 06:22:04;;;;;;;2.83;2.63;;;;;;;1.59;94.87;93138.84;6141389;23;20001;-76
2021/03/16 06:24:30;;;;;;;2.50;2.30;;;;;;;1.63;94.20;93130.88;6149546;23;20001;-78
2021/03/16 06:26:55;;;;;;;2.72;2.00;;;;;;;1.72;93.21;93143.47;6142854;23;20008;-78
2021/03/16 06:29:21;;;;;;;2.50;2.30;;;;;;;1.78;92.80;93144.56;6119304;23;19997;-77
2021/03/16 06:31:47;;;;;;;2.65;2.45;;;;;;;1.70;92.95;93147.13;6142708;23;20076;-77
2021/03/16 06:34:19;;;;;;;2.60;2.40;;;;;;;1.68;92.72;93151.59;6143424;23;20008;-76
2021/03/16 06:36:46;;;;;;;2.15;1.95;;;;;;;1.75;92.62;93149.97;6164906;23;20037;-76
2021/03/16 06:39:19;;;;;;;2.05;1.77;;;;;;;1.69;92.63;93156.53;6114843;23;20013;-77
2021/03/16 06:41:44;;;;;;;3.88;2.30;;;;;;;1.59;93.02;93163.56;6140578;23;20032;-77
2021/03/16 06:44:15;;;;;;;4.32;3.17;;;;;;;1.73;92.78;93167.22;6148398;23;20001;-78
2021/03/16 06:46:41;;;;;;;2.65;2.45;;;;;;;1.79;92.85;93166.56;6164438;23;20004;-78
2021/03/16 06:49:14;;;;;;;2.75;2.55;;;;;;;1.78;92.10;93164.97;6194386;23;20008;-78
2021/03/16 06:51:39;;;;;;;2.72;2.53;;;;;;;1.74;91.88;93167.03;6144945;23;20029;-78
2021/03/16 06:54:09;;;;;;;2.90;2.70;;;;;;;1.86;92.38;93180.28;6197253;23;20032;-77
2021/03/16 06:56:34;;;;;;;3.10;2.80;;;;;;;1.88;92.09;93174.03;6124367;23;20059;-79
2021/03/16 06:59:00;;;;;;;2.70;2.50;;;;;;;1.81;92.35;93159.53;6146014;23;19988;-79
2021/03/16 07:01:33;;;;;;;3.17;2.88;;;;;;;1.91;91.67;93175.47;6173986;23;20001;-77
2021/03/16 07:03:59;;;;;;;3.30;3.10;;;;;;;1.96;92.01;93183.41;6146799;23;20005;-78
2021/03/16 07:06:25;;;;;;;2.83;2.63;;;;;;;1.98;91.46;93177.22;6128782;23;20496;-84
2021/03/16 07:08:50;;;;;;;3.13;2.92;;;;;;;2.10;91.40;93181.00;6195988;23;20012;-80
2021/03/16 07:11:21;;;;;;;3.00;2.80;;;;;;;1.99;91.73;93183.13;6128417;23;20012;-80
2021/03/16 07:13:47;;;;;;;3.05;2.85;;;;;;;1.99;91.62;93183.88;6183649;23;20004;-79
2021/03/16 07:16:13;;;;;;;3.00;2.80;;;;;;;1.98;91.50;93189.16;6153195;23;20031;-80
2021/03/16 07:18:42;;;;;;;3.33;3.03;;;;;;;1.82;91.94;93172.13;6193755;23;20084;-78
2021/03/16 07:21:16;;;;;;;2.88;2.67;;;;;;;1.98;91.72;93189.97;6148716;23;20008;-79
2021/03/16 07:23:44;;;;;;;3.47;3.28;;;;;;;2.22;91.23;93190.84;6148398;23;20013;-79
2021/03/16 07:26:10;;;;;;;3.03;2.83;;;;;;;2.31;90.31;93192.44;6144150;23;20056;-80
2021/03/16 07:28:36;;;;;;;3.45;3.25;;;;;;;2.21;91.07;93195.19;6148757;23;20358;-77
2021/03/16 07:31:01;;;;;;;3.45;3.10;;;;;;;2.07;91.14;93195.84;6191947;23;20012;-78
2021/03/16 07:33:28;;;;;;;4.90;4.50;;;;;;;2.02;91.43;93195.56;6162630;23;20040;-77
2021/03/16 07:35:54;;;;;;;3.90;3.60;;;;;;;1.96;91.55;93198.72;6162913;23;20001;-75
2021/03/16 07:38:19;;;;;;;4.85;4.45;;;;;;;2.04;91.15;93199.53;6170739;23;20033;-78
2021/03/16 07:40:45;;;;;;;4.47;4.18;;;;;;;2.05;91.12;93205.44;6145816;23;20004;-78
2021/03/16 07:43:11;;;;;;;4.55;4.25;;;;;;;2.11;91.08;93205.56;6153925;23;20024;-78
2021/03/16 07:45:36;;;;;;;5.60;4.78;;;;;;;1.87;91.00;93197.94;6171779;23;20005;-78
2021/03/16 07:48:13;;;;;;;5.60;5.15;;;;;;;2.08;91.09;93205.91;6128314;23;20092;-80
2021/03/16 07:50:38;;;;;;;7.35;6.63;;;;;;;1.99;91.10;93204.31;6155791;23;20013;-79
2021/03/16 07:53:04;;;;;;;5.90;5.40;;;;;;;2.06;91.18;93209.56;6123340;23;20000;-79
2021/03/16 07:55:29;;;;;;;6.03;5.63;;;;;;;2.04;90.85;93219.94;6150654;23;20009;-78
2021/03/16 07:58:12;;;;;;;7.53;6.95;;;;;;;1.90;91.20;93217.25;6147605;23;20012;-77
2021/03/16 08:00:37;;;;;;;6.95;6.45;;;;;;;2.07;91.15;93223.91;6182125;23;19985;-79
2021/03/16 08:03:03;;;;;;;8.55;7.75;;;;;;;1.96;91.19;93222.50;6174449;23;20076;-79
2021/03/16 08:05:40;;;;;;;9.48;8.73;;;;;;;1.97;91.71;93225.84;6129833;23;20013;-80
2021/03/16 08:08:42;;;;;;;8.93;8.23;;;;;;;1.84;91.51;93228.09;6175273;23;20004;-75
2021/03/16 08:11:12;;;;;;;9.98;9.18;;;;;;;1.89;91.42;93228.44;6202558;23;20012;-79
2021/03/16 08:13:39;;;;;;;9.10;8.40;;;;;;;1.70;91.50;93228.75;6124440;23;20009;-79
2021/03/16 08:16:11;;;;;;;9.73;8.82;;;;;;;1.82;91.62;93232.56;6126980;23;20064;-77
2021/03/16 08:18:37;;;;;;;9.80;9.00;;;;;;;1.95;91.22;93237.97;6153812;23;20040;-78
2021/03/16 08:21:09;;;;;;;10.40;9.60;;;;;;;1.84;91.69;93236.56;6199639;23;20005;-79
2021/03/16 08:23:34;;;;;;;11.18;10.25;;;;;;;1.91;91.72;93240.06;6172989;23;19993;-78
2021/03/16 08:26:00;;;;;;;11.68;10.68;;;;;;;1.91;91.97;93239.25;6173086;23;20009;-78
2021/03/16 08:28:26;;;;;;;11.05;10.15;;;;;;;1.81;91.65;93241.19;6205081;23;19985;-79
2021/03/16 08:30:51;;;;;;;12.82;11.75;;;;;;;1.83;92.27;93246.94;6178860;23;20071;-82
2021/03/16 08:33:19;;;;;;;11.68;10.68;;;;;;;1.83;91.87;93234.19;6182300;23;20016;-78
2021/03/16 08:35:48;;;;;;;10.82;10.10;;;;;;;1.74;91.72;93240.22;6175267;23;20005;-77
2021/03/16 08:38:21;;;;;;;12.45;11.45;;;;;;;1.79;91.67;93226.03;6203868;23;20012;-78
2021/03/16 08:40:48;;;;;;;10.77;9.68;;;;;;;1.73;92.26;93242.00;6172339;23;20462;-79
2021/03/16 08:43:14;;;;;;;11.63;10.50;;;;;;;1.78;92.45;93236.41;6150558;23;20017;-81
2021/03/16 08:45:42;;;;;;;12.57;11.55;;;;;;;1.83;92.20;93246.94;6204422;23;20037;-80
2021/03/16 08:48:07;;;;;;;13.75;12.55;;;;;;;1.74;91.91;93240.22;6179777;23;20251;-82
2021/03/16 08:50:33;;;;;;;13.98;12.88;;;;;;;1.91;91.67;93234.97;6152168;23;20012;-77
2021/03/16 08:52:58;;;;;;;12.98;11.80;;;;;;;2.02;91.74;93233.84;6181274;23;20012;-81
2021/03/16 08:57:59;;;;;;;13.45;12.35;;;;;;;1.79;91.59;93215.84;6230151;23;20050;-82
2021/03/16 09:05:35;;;;;;;13.48;12.38;;;;;;;1.66;91.88;93230.84;6192768;22;20015;-80
2021/03/16 09:08:01;;;;;;;14.82;13.45;;;;;;;1.68;91.11;93210.25;6188834;23;19997;-80
2021/03/16 09:10:27;;;;;;;13.15;12.05;;;;;;;1.70;91.66;93237.22;6133084;23;19996;-81
2021/03/16 09:12:53;;;;;;;14.48;13.20;;;;;;;1.50;92.77;93213.78;6127556;23;20020;-79
2021/03/16 09:17:55;;;;;;;14.35;13.15;;;;;;;1.72;92.06;93252.34;6188624;22;20024;-78
2021/03/16 09:20:32;;;;;;;12.80;11.73;;;;;;;1.68;91.83;93245.97;6129658;23;20016;-81
2021/03/16 09:23:05;;;;;;;13.98;12.77;;;;;;;1.51;92.10;93229.84;6155150;23;20013;-78
2021/03/16 09:25:32;;;;;;;13.77;12.68;;;;;;;1.58;92.13;93234.19;6161082;23;20019;-81
2021/03/16 09:28:00;;;;;;;13.70;12.50;;;;;;;1.92;91.47;93244.22;6160182;23;20016;-79
2021/03/16 09:30:35;;;;;;;12.27;11.27;;;;;;;1.59;91.39;93228.13;6162934;23;20019;-79
2021/03/16 09:33:02;;;;;;;13.88;12.57;;;;;;;1.55;91.63;93226.84;6214267;23;20010;-79
2021/03/16 09:35:27;;;;;;;14.98;13.70;;;;;;;1.91;91.90;93277.53;6187912;23;20013;-78
2021/03/16 09:37:53;;;;;;;15.55;14.18;;;;;;;1.59;92.41;93240.88;6193123;23;20021;-81
2021/03/16 09:40:33;;;;;;;14.90;13.70;;;;;;;1.57;92.10;93239.44;6170076;22;20105;-80
2021/03/16 09:42:59;;;;;;;;;;;;;;;1.75;91.95;93278.34;6185045;23;19993;-79
2021/03/16 09:48:18;;;;;;;12.85;11.73;;;;;;;1.65;92.22;93276.91;6192562;23;20024;-78
2021/03/16 09:50:45;;;;;;;15.13;13.70;;;;;;;1.60;92.04;93251.88;6211612;23;20001;-76
2021/03/16 09:53:12;;;;;;;15.23;13.73;;;;;;;1.47;91.88;93259.22;6185498;23;20013;-78
2021/03/16 09:55:38;;;;;;;17.25;15.75;;;;;;;1.65;92.01;93252.19;6214942;23;19997;-81
2021/03/16 09:58:04;;;;;;;14.48;13.07;;;;;;;1.89;91.91;93287.13;6135069;23;20028;-80
2021/03/16 10:00:30;;;;;;;13.60;12.50;;;;;;;1.74;90.97;93278.47;6191055;23;20013;-81
2021/03/16 10:03:07;;;;;;;14.57;13.15;;;;;;;1.79;91.69;93301.78;6211180;23;20028;-78
2021/03/16 10:05:33;;;;;;;13.98;12.85;;;;;;;1.58;91.80;93277.53;6188285;23;20015;-80
2021/03/16 10:07:58;;;;;;;15.30;14.00;;;;;;;1.62;91.92;93275.47;6165869;23;19993;-82
2021/03/16 10:13:02;;;;;;;15.20;13.90;;;;;;;1.75;91.61;93280.09;6149678;22;20008;-80
2021/03/16 10:15:29;;;;;;;14.13;13.02;;;;;;;1.85;91.50;93314.69;6186961;23;19997;-80
2021/03/16 10:17:59;;;;;;;14.60;13.38;;;;;;;1.70;91.90;93285.69;6164192;23;20438;-77
2021/03/16 10:20:30;;;;;;;14.65;13.48;;;;;;;1.71;91.67;93291.56;6165693;23;20013;-78
2021/03/16 10:25:32;;;;;;;14.32;13.13;;;;;;;1.79;92.15;93310.25;6267703;22;20012;-79
2021/03/16 10:28:06;;;;;;;13.57;12.48;;;;;;;1.51;91.59;93275.75;6192248;23;20096;-78
2021/03/16 10:33:07;;;;;;;13.73;12.57;;;;;;;1.82;91.80;93304.00;6248325;22;20015;-79
2021/03/16 10:35:35;;;;;;;14.32;13.13;;;;;;;1.73;92.13;93297.31;6217276;22;20000;-79
2021/03/16 10:38:04;;;;;;;14.18;12.98;;;;;;;1.55;92.13;93288.06;6192936;22;20376;-81
2021/03/16 10:40:30;;;;;;;13.53;12.53;;;;;;;1.83;91.96;93290.31;6219777;23;20014;-80
2021/03/16 10:42:57;;;;;;;14.10;13.00;;;;;;;1.69;91.49;93291.72;6217551;22;20231;-80
2021/03/16 10:45:22;;;;;;;13.63;12.63;;;;;;;1.76;91.61;93308.00;6218348;23;20039;-78
2021/03/16 10:47:48;;;;;;;13.68;12.48;;;;;;;1.53;91.27;93292.53;6191578;23;20008;-80
2021/03/16 10:50:14;;;;;;;14.07;12.77;;;;;;;1.72;91.50;93298.28;6187215;23;20038;-81
2021/03/16 10:52:40;;;;;;;14.30;13.10;;;;;;;1.71;91.48;93305.13;6188065;23;20031;-80
2021/03/16 10:55:08;;;;;;;14.00;12.70;;;;;;;1.56;92.17;93294.75;6161242;23;20016;-79
2021/03/16 10:57:34;;;;;;;15.60;14.00;;;;;;;1.70;91.95;93329.06;6162988;23;19993;-82
2021/03/16 11:00:00;;;;;;;15.90;14.50;;;;;;;1.48;92.33;93312.59;6157474;23;20012;-77
2021/03/16 11:02:26;;;;;;;15.77;14.32;;;;;;;1.59;92.53;93326.78;6214157;23;20016;-80
2021/03/16 11:04:51;;;;;;;13.90;12.80;;;;;;;1.63;92.48;93299.22;6186355;23;20001;-80
2021/03/16 11:07:17;;;;;;;15.25;14.05;;;;;;;1.62;92.33;93328.22;6210812;22;20001;-78
2021/03/16 11:09:42;;;;;;;15.18;13.73;;;;;;;1.59;92.50;93314.03;6191046;23;20011;-79
2021/03/16 11:12:08;;;;;;;16.45;14.88;;;;;;;1.61;92.86;93339.41;6175731;23;20032;-81
2021/03/16 11:14:34;;;;;;;14.57;13.40;;;;;;;1.45;93.42;93310.34;6130363;23;20009;-82
2021/03/16 11:17:00;;;;;;;16.48;15.07;;;;;;;1.32;93.52;93306.66;6121398;23;20333;-79
2021/03/16 11:19:26;;;;;;;15.25;13.85;;;;;;;1.50;93.58;93332.84;6147774;23;19986;-78
2021/03/16 11:21:51;;;;;;;14.93;13.48;;;;;;;1.51;93.31;93330.13;6147027;23;20008;-79
2021/03/16 11:24:18;;;;;;;15.05;13.68;;;;;;;1.45;93.33;93330.75;6121228;23;20002;-85
2021/03/16 11:26:45;;;;;;;14.25;13.05;;;;;;;1.45;93.54;93304.44;6148095;23;20050;-79
2021/03/16 11:29:10;;;;;;;13.73;12.30;;;;;;;1.41;93.21;93313.38;6146737;23;20034;-80
2021/03/16 11:31:36;;;;;;;14.57;12.13;;;;;;;1.25;93.23;93293.75;6144437;23;20014;-79
2021/03/16 11:34:02;;;;;;;15.23;13.85;;;;;;;1.48;93.15;93316.88;6148961;23;20045;-80
2021/03/16 11:36:27;;;;;;;12.95;11.70;;;;;;;1.27;92.90;93293.59;6149234;23;20005;-79
2021/03/16 11:38:53;;;;;;;12.57;10.88;;;;;;;1.25;93.54;93301.41;6136791;23;19998;-79
2021/03/16 11:41:19;;;;;;;12.95;11.95;;;;;;;1.26;93.44;93295.34;6135179;23;20447;-78
2021/03/16 11:43:45;;;;;;;13.40;12.30;;;;;;;1.37;93.27;93309.53;6140590;23;19986;-81
2021/03/16 11:46:10;;;;;;;12.82;11.82;;;;;;;1.55;93.47;93333.16;6140960;23;20010;-80
2021/03/16 11:48:36;;;;;;;13.05;11.75;;;;;;;1.51;93.38;93326.75;6141509;23;20009;-78
2021/03/16 11:51:02;;;;;;;13.18;12.18;;;;;;;1.52;93.40;93321.53;6130691;23;20010;-79
2021/03/16 11:53:28;;;;;;;13.10;12.10;;;;;;;1.64;93.13;93331.44;6136990;23;20033;-78
2021/03/16 11:55:55;;;;;;;11.85;10.85;;;;;;;1.43;92.80;93319.13;6131727;23;20001;-78
2021/03/16 11:58:20;;;;;;;13.35;12.38;;;;;;;1.50;92.64;93318.34;6081798;23;20408;-78
2021/03/16 12:00:46;;;;;;;14.13;12.90;;;;;;;1.49;93.07;93332.03;6128438;23;20010;-78
2021/03/16 12:03:11;;;;;;;14.32;13.02;;;;;;;1.59;92.36;93330.16;6132908;23;20002;-79
2021/03/16 12:05:37;;;;;;;10.73;9.82;;;;;;;1.41;93.45;93326.91;6129466;23;20013;-78
2021/03/16 12:08:02;;;;;;;12.02;11.02;;;;;;;1.46;93.11;93326.44;6107021;23;20010;-79
2021/03/16 12:10:28;;;;;;;14.60;13.20;;;;;;;1.55;93.44;93336.50;6102157;23;20087;-77
2021/03/16 12:12:53;;;;;;;13.65;12.45;;;;;;;1.47;93.54;93328.84;6126743;23;20046;-79
2021/03/16 12:15:19;;;;;;;13.23;12.20;;;;;;;1.35;93.53;93330.09;6127445;23;20002;-78
2021/03/16 12:17:45;;;;;;;14.88;13.65;;;;;;;1.36;93.65;93331.69;6107115;23;20032;-79
2021/03/16 12:20:11;;;;;;;14.15;12.93;;;;;;;1.41;93.27;93333.78;6082629;23;20013;-78
2021/03/16 12:22:36;;;;;;;14.20;13.00;;;;;;;1.49;93.30;93341.44;6131523;23;20002;-79
2021/03/16 12:25:07;;;;;;;15.13;13.82;;;;;;;1.34;93.61;93336.16;6105366;23;20010;-77
2021/03/16 12:27:33;;;;;;;13.13;12.05;;;;;;;1.51;93.46;93342.88;6132924;23;20037;-79
2021/03/16 12:30:00;;;;;;;13.50;12.40;;;;;;;1.47;93.07;93333.16;6089425;23;20002;-78
2021/03/16 12:32:25;;;;;;;12.05;10.95;;;;;;;1.66;92.89;93339.72;6107920;23;20025;-79
2021/03/16 12:34:51;;;;;;;13.23;12.13;;;;;;;1.56;93.10;93347.50;6101998;23;20475;-78
2021/03/16 12:37:20;;;;;;;11.52;10.55;;;;;;;1.64;92.56;93351.84;6138036;23;20038;-80
2021/03/16 12:39:45;;;;;;;11.68;10.68;;;;;;;1.65;92.79;93348.31;6136115;23;20451;-78
2021/03/16 12:42:11;;;;;;;11.00;10.18;;;;;;;1.54;92.54;93329.81;6106329;23;20009;-79
2021/03/16 12:44:36;;;;;;;10.50;9.70;;;;;;;1.75;92.49;93354.06;6105369;23;20005;-79
2021/03/16 12:47:04;;;;;;;9.65;8.95;;;;;;;1.83;91.98;93346.44;6137437;23;20006;-81
2021/03/16 12:49:29;;;;;;;10.20;9.50;;;;;;;1.86;91.95;93333.38;6137629;23;19998;-78
2021/03/16 12:51:55;;;;;;;10.25;9.55;;;;;;;1.91;91.91;93346.44;6140358;23;20004;-78
2021/03/16 12:54:22;;;;;;;11.10;10.13;;;;;;;1.89;91.68;93326.19;6139365;23;20002;-79
2021/03/16 12:56:53;;;;;;;9.85;9.13;;;;;;;1.89;91.71;93322.84;6145175;23;20006;-79
2021/03/16 12:59:19;;;;;;;9.68;8.90;;;;;;;1.87;91.91;93322.19;6150284;23;19986;-81
2021/03/16 13:01:45;;;;;;;9.55;8.85;;;;;;;1.84;91.66;93319.94;6097110;23;20057;-79
2021/03/16 13:04:11;;;;;;;10.88;9.95;;;;;;;1.80;92.11;93324.56;6118527;23;20009;-79
2021/03/16 13:06:37;;;;;;;8.48;7.88;;;;;;;1.68;91.61;93314.84;6146070;23;20041;-78
2021/03/16 13:11:37;;;;;;;10.50;9.80;;;;;;;1.66;91.97;93319.31;6202245;23;20028;-81
2021/03/16 13:14:03;;;;;;;10.68;9.88;;;;;;;1.88;91.95;93362.88;6166349;23;20693;-79
2021/03/16 13:16:29;;;;;;;10.90;9.95;;;;;;;1.73;91.88;93331.28;6154507;23;20457;-80
2021/03/16 13:18:54;;;;;;;12.60;11.60;;;;;;;1.75;91.95;93314.06;6177746;23;20100;-79
2021/03/16 13:21:20;;;;;;;11.48;10.57;;;;;;;1.87;91.36;93327.28;6187368;23;19997;-86
2021/03/16 13:31:31;;;;;;;10.95;10.13;;;;;;;1.86;91.33;93346.13;6212968;23;20011;-80
2021/03/16 13:33:56;;;;;;;10.65;9.85;;;;;;;1.96;91.50;93351.84;6217085;23;20013;-81
2021/03/16 13:36:23;;;;;;;10.82;10.02;;;;;;;2.09;91.13;93365.75;6191824;23;20015;-82
2021/03/16 13:38:50;;;;;;;11.77;10.88;;;;;;;1.92;91.34;93332.72;6189980;23;20000;-82
2021/03/16 13:41:16;;;;;;;12.13;11.23;;;;;;;2.08;90.04;93342.94;6186963;23;19997;-78
2021/03/16 13:43:42;;;;;;;10.30;9.55;;;;;;;2.20;89.79;93362.06;6188191;23;19995;-79
2021/03/16 13:46:12;;;;;;;11.90;10.90;;;;;;;2.07;90.46;93336.22;6237318;23;20032;-80
2021/03/16 13:48:37;;;;;;;11.32;10.52;;;;;;;2.07;89.86;93339.59;6193280;23;20001;-79
2021/03/16 13:51:03;;;;;;;11.73;10.82;;;;;;;2.22;90.27;93344.03;6169233;23;20013;-78
2021/03/16 13:53:28;;;;;;;10.43;9.63;;;;;;;2.04;89.75;93324.59;6156537;23;20008;-81
2021/03/16 13:55:54;;;;;;;10.82;9.88;;;;;;;2.21;89.72;93338.16;6182619;23;20001;-80
2021/03/16 13:58:20;;;;;;;9.98;9.18;;;;;;;2.19;89.62;93342.59;6151051;23;19994;-79
2021/03/16 14:00:46;;;;;;;8.70;8.10;;;;;;;2.27;89.27;93367.34;6150732;23;19985;-78
2021/03/16 14:03:11;;;;;;;9.55;8.77;;;;;;;2.10;89.75;93334.16;6153307;23;20009;-82
2021/03/16 14:05:37;;;;;;;9.50;8.70;;;;;;;2.32;89.40;93372.75;6154051;23;20016;-79
2021/03/16 14:08:03;;;;;;;8.27;7.57;;;;;;;2.15;88.54;93343.91;6206276;23;20009;-79
2021/03/16 14:10:28;;;;;;;8.75;8.00;;;;;;;2.20;89.31;93359.53;6133104;23;19993;-78
2021/03/16 14:12:54;;;;;;;5.43;5.03;;;;;;;2.14;89.55;93355.06;6154075;23;20005;-80
2021/03/16 14:15:20;;;;;;;8.48;7.88;;;;;;;2.17;88.42;93353.94;6156535;23;20060;-80
2021/03/16 14:17:46;;;;;;;8.45;7.75;;;;;;;2.31;88.52;93356.63;6129545;23;20005;-79
2021/03/16 14:20:13;;;;;;;9.27;8.48;;;;;;;2.17;88.39;93341.16;6178255;23;20001;-79
2021/03/16 14:22:39;;;;;;;9.02;8.23;;;;;;;2.43;87.98;93380.91;6154775;23;20013;-79
2021/03/16 14:25:06;;;;;;;8.32;7.72;;;;;;;2.40;89.09;93380.44;6157306;23;20005;-80
2021/03/16 14:27:31;;;;;;;8.82;8.13;;;;;;;2.23;87.78;93343.88;6154647;23;20001;-78
2021/03/16 14:29:57;;;;;;;9.40;8.77;;;;;;;2.26;88.63;93346.13;6181912;23;20025;-79
2021/03/16 14:32:23;;;;;;;9.52;8.63;;;;;;;2.34;88.48;93346.13;6135482;23;20036;-79
2021/03/16 14:34:48;;;;;;;8.82;8.20;;;;;;;2.41;88.38;93352.16;6175651;23;20017;-77
2021/03/16 14:37:14;;;;;;;9.43;8.60;;;;;;;2.47;88.67;93361.72;6178486;23;19993;-79
2021/03/16 14:39:39;;;;;;;9.80;8.95;;;;;;;2.55;88.80;93382.16;6183832;23;20021;-80
2021/03/16 14:42:07;;;;;;;9.63;8.93;;;;;;;2.40;88.67;93360.78;6170836;23;20029;-77
2021/03/16 14:44:32;;;;;;;9.60;8.90;;;;;;;2.28;87.83;93356.94;6158558;23;20044;-79
2021/03/16 14:46:58;;;;;;;10.63;9.73;;;;;;;2.34;87.84;93353.78;6164688;23;20029;-78
2021/03/16 14:49:23;;;;;;;11.40;10.40;;;;;;;2.44;88.40;93361.28;6163929;23;20037;-81
2021/03/16 14:54:25;;;;;;;10.75;9.80;;;;;;;2.35;89.15;93370.69;6150171;23;20025;-79
2021/03/16 14:56:52;;;;;;;10.65;9.75;;;;;;;2.35;88.20;93364.78;6182779;23;20009;-78
2021/03/16 14:59:18;;;;;;;10.93;10.02;;;;;;;2.45;88.41;93391.75;6159620;23;20033;-80
2021/03/16 15:01:44;;;;;;;10.65;9.85;;;;;;;2.43;88.89;93382.66;6185967;23;20013;-78
2021/03/16 15:04:10;;;;;;;11.57;10.68;;;;;;;2.46;88.39;93390.00;6110094;23;21879;-79
2021/03/16 15:06:35;;;;;;;11.40;10.55;;;;;;;2.27;88.78;93377.56;6145591;23;20014;-79
2021/03/16 15:11:36;;;;;;;13.45;12.35;;;;;;;2.37;88.47;93396.06;6171183;23;20035;-80
2021/03/16 15:16:33;;;;;;;13.57;12.32;;;;;;;2.31;89.01;93397.47;6241809;23;20009;-80
2021/03/16 15:26:45;;;;;;;14.45;13.25;;;;;;;2.20;89.37;93389.34;6199356;23;20031;-83
2021/03/16 15:40:36;;;;;;;15.02;13.70;;;;;;;2.11;89.97;93393.69;6195729;23;20104;-82
2021/03/16 15:43:02;;;;;;;15.07;13.77;;;;;;;2.20;89.81;93400.38;6181166;23;20028;-79
2021/03/16 15:45:28;;;;;;;12.63;11.70;;;;;;;2.11;89.08;93394.47;6198087;23;19998;-79
2021/03/16 15:50:34;;;;;;;11.93;10.82;;;;;;;2.16;89.14;93393.19;6172793;23;20036;-80
2021/03/16 15:55:42;;;;;;;14.40;13.13;;;;;;;2.33;89.38;93425.44;6207717;23;20047;-79
2021/03/16 16:09:23;;;;;;;16.77;15.23;;;;;;;2.04;90.14;93405.47;6191973;23;20009;-80
2021/03/16 16:14:27;;;;;;;16.95;15.27;;;;;;;2.01;90.51;93418.53;6167650;23;20000;-80
2021/03/16 16:33:08;;;;;;;21.08;18.98;;;;;;;1.82;91.80;93436.69;6156316;23;20030;-78
2021/03/16 16:46:38;;;;;;;20.33;18.30;;;;;;;1.73;91.76;93425.69;6145272;22;20281;-79
2021/03/16 16:49:04;;;;;;;21.13;19.02;;;;;;;1.85;91.62;93438.94;6192285;23;20047;-81
2021/03/16 16:51:31;;;;;;;19.83;17.95;;;;;;;1.86;91.91;93443.09;6093150;23;20010;-80
2021/03/16 17:01:42;;;;;;;19.42;17.73;;;;;;;1.90;91.35;93441.81;6173998;23;20401;-79
2021/03/16 17:09:18;;;;;;;22.27;20.08;;;;;;;1.93;92.07;93444.03;6144961;23;20032;-79
2021/03/16 17:14:20;;;;;;;20.95;18.85;;;;;;;1.98;91.65;93445.19;6214972;22;20020;-80
2021/03/16 17:19:21;;;;;;;21.75;19.65;;;;;;;1.93;91.94;93449.94;6136168;23;20022;-81
2021/03/16 17:27:17;;;;;;;22.10;20.00;;;;;;;1.96;91.73;93436.06;6150239;23;20032;-82
2021/03/16 17:50:24;;;;;;;20.90;18.80;;;;;;;2.06;91.53;93460.50;6177295;23;20009;-84
2021/03/16 17:52:49;;;;;;;18.92;17.02;;;;;;;2.03;91.17;93447.25;6137056;23;20008;-81
2021/03/16 17:57:50;;;;;;;24.17;21.77;;;;;;;1.96;91.72;93438.63;6172153;23;20055;-81
2021/03/16 18:23:16;;;;;;;26.25;23.63;;;;;;;2.24;91.63;93477.47;6164165;23;20087;31
2021/03/16 18:33:27;;;;;;;28.83;25.90;;;;;;;2.03;91.86;93452.34;6222812;23;20028;-79
2021/03/16 19:14:07;;;;;;;34.25;30.58;;;;;;;2.20;91.85;93465.94;6195564;22;20031;-77
2021/03/16 19:16:32;;;;;;;34.05;30.35;;;;;;;2.16;91.49;93459.56;6167225;23;20009;-81
2021/03/16 20:05:54;;;;;;;31.77;28.38;;;;;;;2.20;91.05;93468.50;6153935;23;20047;-77
2021/03/16 20:10:55;;;;;;;34.22;30.58;;;;;;;2.26;90.99;93496.75;6161398;23;20007;-80
2021/03/16 20:21:06;;;;;;;35.08;31.27;;;;;;;2.09;91.10;93479.81;6167833;23;20060;-80
2021/03/16 20:23:32;;;;;;;33.80;30.17;;;;;;;2.12;91.03;93484.59;6129385;23;20054;-79
2021/03/16 20:46:39;;;;;;;29.88;25.90;;;;;;;2.32;90.25;93513.19;6162664;22;20024;-78
2021/03/16 21:07:09;;;;;;;33.67;28.63;;;;;;;2.16;89.56;93479.97;6191470;22;20019;-80
2021/03/16 21:17:22;;;;;;;28.27;24.90;;;;;;;2.08;89.37;93476.47;6181420;23;20654;-79
2021/03/16 21:27:33;;;;;;;31.25;25.92;;;;;;;2.08;89.84;93475.69;6131264;23;20772;-80
2021/03/16 21:46:18;;;;;;;27.88;24.88;;;;;;;2.08;90.18;93493.53;6178932;23;20046;-82
2021/03/16 21:48:44;;;;;;;29.50;26.35;;;;;;;2.14;89.89;93490.38;6054273;23;20018;-79
